עמוד ראשי
METAR-TAF:

METAR-TAF

שדות תעופה :

קמגואיי, קובה

קו רוחב: 21-25N, קו אורך: 077-51W, גובה: 122מטר

תצפית מזג אוויר נוכחית

הדו"ח נערך לפני 57דקות, בשעה 11:50 UTC
רוח 2קשר עם כיוונים משתנים
טמפרטורת 26 צלסיוס
לחות 94%
לחץ 1015 hPa
ראות: 8000מטר
מעט עננים בגובה 2000רגל
עננים בינוניים בגובה 19000רגל
ערפל במרחב,

METAR: MUCM 131150Z VRB02KT 8000 VCFG FEW020 BKN190 26/25 Q1015

זמן: 08:47 (12:47 UTC)

תחזית

הדו"ח נערך לפני 1 שעות ו 47דקות, בשעה 11:00 UTC
תחזית בתוקף מ 13 ב 12 UTC עד 14 ב 12 UTC
רוח 4קשר עם כיוונים משתנים
ראות: 9000מטר
מעט עננים בגובה 2000רגל
עננים בינוניים בגובה 10000רגל
זמנית מ -
13 ב 12 UTC עד 13 ב 13 UTC
ראות: 5000מטר
אד
זמנית מ -
13 ב 21 UTC עד 13 ב 24 UTC
מעט עננים בגובה 1800רגל , קומולונימבוס.
עננים בינוניים בגובה 2000רגל

TAF: MUCM 131100Z 1312/1412 VRB04KT 9000 FEW020 BKN100 TEMPO 1312/1313 5000 BR TEMPO 1321/1324 FEW018CB BKN020

תצפיות ותחזיות מזג אוויר לגבי יותר מ- 4,000 שדות תעופה ברחבי העולם. דוחות METAR ו- TAF.

התחנות הזמינות מסומנות בנקודות צהובות ואדומות על גבי המפה.

העבר את העכבר לנקודה הצבעונית על מנת לראות את שם התחנה.

לאחר מכן, לחץ כדי לראות את תוכן ואת תחזיות מזג האוויר.

כדי לשנות את המפה: לחץ על הכפתורים הירוקים עם הפלוס השחור כדי להתקרב; על הכפתור הירוק עם המקף כדי להתרחק; או בחיצים הירוקים למפות סמוכות.


METAR-TAF: